Terminal Aerodrome Forecast
Issued by NWS Green Bay, WI

Home | Current Version | Previous Version | Text Only | Print | Product List | Glossary Off
Versions: 1 2 3 4 5 6 7 8 9 10 11 12 13 14 15 16 17 18 19 20 21 22 23 24 25 26

000
FTUS43 KGRB 261252 AAA
TAFGRB
TAF AMD
KGRB 261252Z 2613/2712 20008KT P6SM VCSH SCT040 BKN060
      TEMPO 2615/2617 3SM -TSRA BKN040CB
     FM261700 23009KT 6SM -RA BKN035
     FM261900 23008KT P6SM BKN035 BKN100
     FM270100 25004KT P6SM BKN120
     FM270600 35004KT P6SM SCT120
      TEMPO 2708/2712 3SM BR BKN025=

USA.gov is the U.S. government's official web portal to all federal, state and local government web resources and services.